createdAt,value
2023-05-05T00:00:47.204Z,5.22
2023-05-05T00:03:36.989Z,5.75
2023-05-05T00:06:28.453Z,5.45
2023-05-05T00:09:22.572Z,5.35
2023-05-05T00:12:10.234Z,5.10
2023-05-05T00:15:00.067Z,5.20
2023-05-05T00:17:47.479Z,4.82
2023-05-05T00:20:37.128Z,5.40
2023-05-05T00:23:24.678Z,4.63
2023-05-05T00:26:13.261Z,5.60
2023-05-05T00:29:06.494Z,4.75
2023-05-05T00:31:54.112Z,7.85
2023-05-05T00:34:41.924Z,6.63
2023-05-05T00:37:31.410Z,6.68
2023-05-05T00:40:19.229Z,6.95
2023-05-05T00:43:08.302Z,7.28
2023-05-05T00:46:03.074Z,8.00
2023-05-05T00:48:54.056Z,6.90
2023-05-05T00:51:43.773Z,8.00
2023-05-05T00:54:33.343Z,7.25
2023-05-05T00:57:20.792Z,8.15
2023-05-05T01:00:12.238Z,7.50
2023-05-05T01:03:00.065Z,6.57
2023-05-05T01:05:56.909Z,7.25
2023-05-05T01:09:01.933Z,6.53
2023-05-05T01:11:59.897Z,6.18
2023-05-05T01:15:06.781Z,6.22
2023-05-05T01:17:59.747Z,5.47
2023-05-05T01:20:58.991Z,5.60
2023-05-05T01:24:08.092Z,4.65
2023-05-05T01:27:18.125Z,4.60
2023-05-05T01:30:28.690Z,3.78
2023-05-05T01:36:13.654Z,4.05
2023-05-05T01:39:03.101Z,3.33
2023-05-05T01:41:54.364Z,3.03
2023-05-05T01:44:44.200Z,2.97
2023-05-05T01:47:32.305Z,2.88
2023-05-05T01:50:23.308Z,3.17
2023-05-05T01:53:11.710Z,3.40
2023-05-05T01:56:00.153Z,3.22
2023-05-05T01:58:49.218Z,3.08
2023-05-05T02:01:41.800Z,2.80
2023-05-05T02:04:31.863Z,3.08
2023-05-05T02:07:23.460Z,3.15
2023-05-05T02:10:13.739Z,3.38
2023-05-05T02:13:05.398Z,3.40
2023-05-05T02:15:55.538Z,2.80
2023-05-05T02:18:48.457Z,3.35
2023-05-05T02:21:36.566Z,3.15
2023-05-05T02:24:28.489Z,3.00
2023-05-05T02:27:21.706Z,2.72
2023-05-05T02:30:15.257Z,3.10
2023-05-05T02:33:09.263Z,2.60
2023-05-05T02:35:57.590Z,3.08
2023-05-05T02:38:48.643Z,2.40
2023-05-05T02:41:39.537Z,2.50
2023-05-05T02:44:32.453Z,2.20
2023-05-05T02:47:23.162Z,2.30
2023-05-05T02:50:13.389Z,2.28
2023-05-05T02:53:01.215Z,2.38
2023-05-05T02:55:53.758Z,2.15
2023-05-05T02:58:51.233Z,2.05
2023-05-05T03:02:00.309Z,1.90
2023-05-05T03:04:52.265Z,2.25
2023-05-05T03:07:52.298Z,2.35
2023-05-05T03:10:49.222Z,2.10
2023-05-05T03:13:40.985Z,2.40
2023-05-05T03:16:35.161Z,3.20
2023-05-05T03:19:24.732Z,2.85
2023-05-05T03:22:16.538Z,2.55
2023-05-05T03:25:04.745Z,2.50
2023-05-05T03:27:55.122Z,2.70
2023-05-05T03:30:43.231Z,2.63
2023-05-05T03:33:32.632Z,2.50
2023-05-05T03:36:20.119Z,3.00
2023-05-05T03:39:11.151Z,2.90
2023-05-05T03:41:59.112Z,2.80
2023-05-05T03:44:47.467Z,3.30
2023-05-05T03:47:59.196Z,3.65
2023-05-05T03:50:48.977Z,4.30
2023-05-05T03:53:36.879Z,4.90
2023-05-05T03:56:27.125Z,4.95
2023-05-05T03:59:17.357Z,4.63
2023-05-05T04:02:23.369Z,6.10
2023-05-05T04:09:09.703Z,6.50
2023-05-05T04:12:11.031Z,7.43
2023-05-05T04:15:08.928Z,7.25
2023-05-05T04:17:56.238Z,8.40
2023-05-05T04:20:43.673Z,8.27
2023-05-05T04:23:32.599Z,8.32
2023-05-05T04:26:19.921Z,8.63
2023-05-05T04:29:09.917Z,8.07
2023-05-05T04:31:58.343Z,9.57
2023-05-05T04:34:45.624Z,9.00
2023-05-05T04:37:33.051Z,9.48
2023-05-05T04:40:20.490Z,11.18
2023-05-05T04:43:07.950Z,12.07
2023-05-05T04:45:56.673Z,11.07
2023-05-05T04:48:44.300Z,10.05
2023-05-05T04:51:32.246Z,10.80
2023-05-05T04:54:22.096Z,10.07
2023-05-05T04:57:09.883Z,9.80
2023-05-05T04:59:57.404Z,9.32
2023-05-05T05:02:46.382Z,9.88
2023-05-05T05:05:36.686Z,10.10
2023-05-05T05:08:24.243Z,10.38
2023-05-05T05:11:12.181Z,10.00
2023-05-05T05:13:59.765Z,10.40
2023-05-05T05:16:56.705Z,10.95
2023-05-05T05:19:45.300Z,10.93
2023-05-05T05:22:33.021Z,9.65
2023-05-05T05:25:20.399Z,10.77
2023-05-05T05:28:10.064Z,9.25
2023-05-05T05:30:58.566Z,10.48
2023-05-05T05:33:46.405Z,9.13
2023-05-05T05:36:35.363Z,9.88
2023-05-05T05:39:27.300Z,10.45
2023-05-05T05:42:14.628Z,9.98
2023-05-05T05:45:02.336Z,9.45
2023-05-05T05:47:55.375Z,9.25
2023-05-05T05:50:45.832Z,9.75
2023-05-05T05:53:37.934Z,9.30
2023-05-05T05:56:25.563Z,9.60
2023-05-05T05:59:12.770Z,10.07
2023-05-05T06:02:00.365Z,9.80
2023-05-05T06:04:48.144Z,9.95
2023-05-05T06:07:38.161Z,10.00
2023-05-05T06:10:28.458Z,10.65
2023-05-05T06:13:16.255Z,8.07
2023-05-05T06:16:03.725Z,8.23
2023-05-05T06:18:51.399Z,8.05
2023-05-05T06:21:38.725Z,8.27
2023-05-05T06:24:29.374Z,8.02
2023-05-05T06:27:20.808Z,7.63
2023-05-05T06:30:14.888Z,7.28
2023-05-05T06:33:02.383Z,6.95
2023-05-05T06:35:51.934Z,6.53
2023-05-05T06:38:39.253Z,6.00
2023-05-05T06:41:26.620Z,5.03
2023-05-05T06:44:15.320Z,5.60
2023-05-05T06:47:08.119Z,5.55
2023-05-05T06:49:55.573Z,5.45
2023-05-05T06:52:49.322Z,5.38
2023-05-05T06:55:37.031Z,5.93
2023-05-05T06:58:24.539Z,5.53
2023-05-05T07:01:13.991Z,4.50
2023-05-05T07:04:04.718Z,4.97
2023-05-05T07:06:52.340Z,3.28
2023-05-05T07:09:50.856Z,3.83
2023-05-05T07:12:38.620Z,3.85
2023-05-05T07:15:29.270Z,3.15
2023-05-05T07:18:20.933Z,3.20
2023-05-05T07:21:08.515Z,2.92
2023-05-05T07:24:41.212Z,2.63
2023-05-05T07:27:43.286Z,2.70
2023-05-05T07:30:33.577Z,2.92
2023-05-05T07:33:22.546Z,2.35
2023-05-05T07:36:12.842Z,1.90
2023-05-05T07:39:03.635Z,1.80
2023-05-05T07:41:52.865Z,1.80
2023-05-05T07:44:43.369Z,1.90
2023-05-05T07:47:31.305Z,1.30
2023-05-05T07:50:20.763Z,1.60
2023-05-05T07:53:14.559Z,1.50
2023-05-05T07:56:06.391Z,1.65
2023-05-05T07:58:53.883Z,1.30
2023-05-05T08:01:41.801Z,1.08
2023-05-05T08:04:29.796Z,1.30
2023-05-05T08:07:18.699Z,1.40
2023-05-05T08:10:09.010Z,1.65
2023-05-05T08:12:56.855Z,1.40
2023-05-05T08:15:45.247Z,1.73
2023-05-05T08:18:34.537Z,2.17
2023-05-05T08:21:22.496Z,1.80
2023-05-05T08:24:11.783Z,2.00
2023-05-05T08:27:01.709Z,1.85
2023-05-05T08:29:49.256Z,1.80
2023-05-05T08:32:36.895Z,1.35
2023-05-05T08:35:26.472Z,1.20
2023-05-05T08:38:14.249Z,1.00
2023-05-05T08:41:04.129Z,1.20
2023-05-05T08:43:51.642Z,1.20
2023-05-05T08:46:40.268Z,1.20
2023-05-05T08:49:32.053Z,0.98
2023-05-05T08:52:26.841Z,1.10
2023-05-05T08:55:21.352Z,0.95
2023-05-05T08:58:14.644Z,0.98
2023-05-05T09:01:02.586Z,1.00
2023-05-05T09:03:52.555Z,0.93
2023-05-05T09:06:40.902Z,0.80
2023-05-05T09:09:29.490Z,0.82
2023-05-05T09:12:21.787Z,0.77
2023-05-05T09:15:12.972Z,1.08
2023-05-05T09:18:05.274Z,1.00
2023-05-05T09:20:56.052Z,1.05
2023-05-05T09:27:02.763Z,1.20
2023-05-05T09:29:51.339Z,1.10
2023-05-05T09:32:49.312Z,0.77
2023-05-05T09:35:53.676Z,1.38
2023-05-05T09:38:41.380Z,1.10
2023-05-05T09:41:39.708Z,0.90
2023-05-05T09:47:39.811Z,1.00
2023-05-05T09:50:43.498Z,0.60
2023-05-05T09:53:39.810Z,0.80
2023-05-05T09:56:38.554Z,0.80
2023-05-05T09:59:26.365Z,0.95
2023-05-05T10:02:14.178Z,0.98
2023-05-05T10:05:10.042Z,1.02
2023-05-05T10:08:14.666Z,0.80
2023-05-05T10:11:07.451Z,1.40
2023-05-05T10:14:00.232Z,1.20
2023-05-05T10:16:52.189Z,0.80
2023-05-05T10:19:40.491Z,0.82
2023-05-05T10:22:30.812Z,0.60
2023-05-05T10:25:28.362Z,0.80
2023-05-05T10:28:22.233Z,1.02
2023-05-05T10:31:25.200Z,1.25
2023-05-05T10:34:24.344Z,0.93
2023-05-05T10:37:36.708Z,0.70
2023-05-05T10:40:26.113Z,0.60
2023-05-05T10:43:16.793Z,1.35
2023-05-05T10:46:05.076Z,0.70
2023-05-05T10:49:11.766Z,0.85
2023-05-05T10:52:14.208Z,0.80
2023-05-05T10:55:13.798Z,1.20
2023-05-05T10:58:02.619Z,1.15
2023-05-05T11:00:51.249Z,1.20
2023-05-05T11:03:56.198Z,1.00
2023-05-05T11:07:53.776Z,1.35
2023-05-05T11:10:44.868Z,1.65
2023-05-05T11:13:38.714Z,1.20
2023-05-05T11:16:48.012Z,1.20
2023-05-05T11:19:49.415Z,1.40
2023-05-05T11:23:11.115Z,1.15
2023-05-05T11:26:04.645Z,1.42
2023-05-05T11:28:59.903Z,1.30
2023-05-05T11:32:13.695Z,1.10
2023-05-05T11:35:06.380Z,1.05
2023-05-05T11:38:10.352Z,1.10
2023-05-05T11:41:04.344Z,1.00
2023-05-05T11:44:24.959Z,1.20
2023-05-05T11:47:28.230Z,1.20
2023-05-05T11:50:21.483Z,1.15
2023-05-05T11:53:09.513Z,1.10
2023-05-05T11:56:13.855Z,0.88
2023-05-05T11:59:09.820Z,1.42
2023-05-05T12:02:04.444Z,1.70
2023-05-05T12:04:58.957Z,1.40
2023-05-05T12:07:58.976Z,1.52
2023-05-05T12:10:47.321Z,1.75
2023-05-05T12:13:36.143Z,1.85
2023-05-05T12:16:23.754Z,1.90
2023-05-05T12:19:14.600Z,1.83
2023-05-05T12:22:05.596Z,1.90
2023-05-05T12:24:57.904Z,2.33
2023-05-05T12:30:39.816Z,3.15
2023-05-05T12:33:27.449Z,4.00
2023-05-05T12:36:16.784Z,3.55
2023-05-05T12:39:09.696Z,4.10
2023-05-05T12:42:03.389Z,4.45
2023-05-05T12:44:51.613Z,4.97
2023-05-05T12:47:44.350Z,5.22
2023-05-05T12:50:35.688Z,5.47
2023-05-05T12:53:25.834Z,4.93
2023-05-05T12:56:36.497Z,4.00
2023-05-05T12:59:30.738Z,3.90
2023-05-05T13:02:18.923Z,3.88
2023-05-05T13:05:08.763Z,5.35
2023-05-05T13:07:56.468Z,5.75
2023-05-05T13:11:20.232Z,6.68
2023-05-05T13:14:07.886Z,5.90
2023-05-05T13:17:04.502Z,6.55
2023-05-05T13:19:53.082Z,6.43
2023-05-05T13:22:40.550Z,5.40
2023-05-05T13:25:43.205Z,5.15
2023-05-05T13:28:34.341Z,6.20
2023-05-05T13:31:23.032Z,5.32
2023-05-05T13:34:11.129Z,4.78
2023-05-05T13:37:05.170Z,4.78
2023-05-05T13:39:52.816Z,4.90
2023-05-05T13:42:40.554Z,5.30
2023-05-05T13:45:33.723Z,5.00
2023-05-05T13:48:21.419Z,5.40
2023-05-05T13:51:09.568Z,5.22
2023-05-05T13:53:59.773Z,5.70
2023-05-05T13:56:47.023Z,5.60
2023-05-05T13:59:39.919Z,8.02
2023-05-05T14:02:38.561Z,6.80
2023-05-05T14:05:38.373Z,7.07
2023-05-05T14:08:40.101Z,5.78
2023-05-05T14:11:27.584Z,5.28
2023-05-05T14:14:15.222Z,6.22
2023-05-05T14:17:02.875Z,5.10
2023-05-05T14:19:52.243Z,5.88
2023-05-05T14:22:42.960Z,4.70
2023-05-05T14:25:30.878Z,5.00
2023-05-05T14:28:18.237Z,4.82
2023-05-05T14:31:06.557Z,4.57
2023-05-05T14:33:56.689Z,4.38
2023-05-05T14:36:45.925Z,4.05
2023-05-05T14:39:33.242Z,3.10
2023-05-05T14:42:20.863Z,2.72
2023-05-05T14:45:16.872Z,2.75
2023-05-05T14:48:22.945Z,2.85
2023-05-05T14:51:10.873Z,2.40
2023-05-05T14:54:00.006Z,2.58
2023-05-05T14:56:47.388Z,3.20
2023-05-05T15:00:04.289Z,2.67
2023-05-05T15:02:51.918Z,2.58
2023-05-05T15:05:51.667Z,2.10
2023-05-05T15:08:41.943Z,2.20
2023-05-05T15:11:30.820Z,1.48
2023-05-05T15:14:19.632Z,1.52
2023-05-05T15:17:30.405Z,1.92
2023-05-05T15:20:22.562Z,2.00
2023-05-05T15:23:10.341Z,2.08
2023-05-05T15:26:03.653Z,2.58
2023-05-05T15:28:55.297Z,2.33
2023-05-05T15:31:43.186Z,2.83
2023-05-05T15:34:31.369Z,2.17
2023-05-05T15:37:21.316Z,2.25
2023-05-05T15:40:12.771Z,2.25
2023-05-05T15:43:00.323Z,2.55
2023-05-05T15:45:48.936Z,2.22
2023-05-05T15:48:38.695Z,2.30
2023-05-05T15:51:26.332Z,3.05
2023-05-05T15:54:17.837Z,2.35
2023-05-05T15:57:05.561Z,2.42
2023-05-05T15:59:57.472Z,2.20
2023-05-05T16:02:46.637Z,2.03
2023-05-05T16:05:37.643Z,2.30
2023-05-05T16:08:26.081Z,2.10
2023-05-05T16:11:26.924Z,2.38
2023-05-05T16:14:18.479Z,2.53
2023-05-05T16:17:07.714Z,2.85
2023-05-05T16:20:00.226Z,4.45
2023-05-05T16:22:47.581Z,3.22
2023-05-05T16:25:35.090Z,3.40
2023-05-05T16:28:22.932Z,3.00
2023-05-05T16:31:12.785Z,2.85
2023-05-05T16:34:02.594Z,2.90
2023-05-05T16:36:53.357Z,3.80
2023-05-05T16:39:41.597Z,4.32
2023-05-05T16:42:29.010Z,4.00
2023-05-05T16:45:16.701Z,4.40
2023-05-05T16:48:09.093Z,4.18
2023-05-05T16:50:59.763Z,4.50
2023-05-05T16:53:49.229Z,5.03
2023-05-05T16:56:41.225Z,5.90
2023-05-05T16:59:30.357Z,5.10
2023-05-05T17:02:23.734Z,4.88
2023-05-05T17:08:21.257Z,5.75
2023-05-05T17:11:30.846Z,5.13
2023-05-05T17:14:18.815Z,5.22
2023-05-05T17:17:07.271Z,4.75
2023-05-05T17:19:54.997Z,5.38
2023-05-05T17:22:46.962Z,5.40
2023-05-05T17:25:34.771Z,5.50
2023-05-05T17:28:24.004Z,5.53
2023-05-05T17:31:11.441Z,5.38
2023-05-05T17:33:58.612Z,5.70
2023-05-05T17:36:46.077Z,5.80
2023-05-05T17:39:33.739Z,5.13
2023-05-05T17:42:23.149Z,5.30
2023-05-05T17:45:13.007Z,6.55
2023-05-05T17:48:21.784Z,6.60
2023-05-05T17:51:09.991Z,12.68
2023-05-05T17:53:58.771Z,7.05
2023-05-05T17:56:45.874Z,6.10
2023-05-05T17:59:36.759Z,5.25
2023-05-05T18:02:30.356Z,5.70
2023-05-05T18:05:18.175Z,6.40
2023-05-05T18:08:06.619Z,6.38
2023-05-05T18:10:54.552Z,6.47
2023-05-05T18:13:49.315Z,6.28
2023-05-05T18:16:40.066Z,6.47
2023-05-05T18:19:28.987Z,7.05
2023-05-05T18:22:16.567Z,6.95
2023-05-05T18:25:08.032Z,6.28
2023-05-05T18:28:02.437Z,5.88
2023-05-05T18:30:50.647Z,6.55
2023-05-05T18:33:40.201Z,6.43
2023-05-05T18:36:34.152Z,7.35
2023-05-05T18:39:21.701Z,7.07
2023-05-05T18:42:09.060Z,6.88
2023-05-05T18:44:56.678Z,7.28
2023-05-05T18:47:44.996Z,6.80
2023-05-05T18:50:34.814Z,7.57
2023-05-05T18:53:27.571Z,6.82
2023-05-05T18:56:25.636Z,7.85
2023-05-05T18:59:13.939Z,8.05
2023-05-05T19:02:04.422Z,8.90
2023-05-05T19:04:52.293Z,8.63
2023-05-05T19:07:42.276Z,9.32
2023-05-05T19:10:31.021Z,10.02
2023-05-05T19:13:24.813Z,10.23
2023-05-05T19:16:15.882Z,11.15
2023-05-05T19:19:20.572Z,9.70
2023-05-05T19:22:10.491Z,8.77
2023-05-05T19:24:58.409Z,9.75
2023-05-05T19:28:01.761Z,9.77
2023-05-05T19:30:56.671Z,8.45
2023-05-05T19:33:45.786Z,9.07
2023-05-05T19:36:34.485Z,9.70
2023-05-05T19:39:24.680Z,9.05
2023-05-05T19:42:13.497Z,9.35
2023-05-05T19:45:02.792Z,9.20
2023-05-05T19:47:50.387Z,8.45
2023-05-05T19:50:41.417Z,9.10
2023-05-05T19:53:29.460Z,9.18
2023-05-05T19:56:17.267Z,9.20
2023-05-05T19:59:06.762Z,10.00
2023-05-05T20:01:56.332Z,11.07
2023-05-05T20:04:46.156Z,11.38
2023-05-05T20:07:33.368Z,10.77
2023-05-05T20:10:22.024Z,10.57
2023-05-05T20:13:09.450Z,11.80
2023-05-05T20:15:57.358Z,10.25
2023-05-05T20:18:46.312Z,10.00
2023-05-05T20:21:34.998Z,9.48
2023-05-05T20:24:23.274Z,10.60
2023-05-05T20:27:10.967Z,11.10
2023-05-05T20:30:01.530Z,11.07
2023-05-05T20:32:49.010Z,10.52
2023-05-05T20:35:39.212Z,10.70
2023-05-05T20:38:27.976Z,10.13
2023-05-05T20:41:15.481Z,9.02
2023-05-05T20:44:03.266Z,9.55
2023-05-05T20:46:54.237Z,8.63
2023-05-05T20:49:44.168Z,8.63
2023-05-05T20:52:40.485Z,9.65
2023-05-05T20:55:42.806Z,9.07
2023-05-05T20:58:30.460Z,8.27
2023-05-05T21:01:30.475Z,9.50
2023-05-05T21:04:17.985Z,8.93
2023-05-05T21:07:05.693Z,8.45
2023-05-05T21:09:57.983Z,9.55
2023-05-05T21:12:52.838Z,12.27
2023-05-05T21:15:43.797Z,10.48
2023-05-05T21:18:34.430Z,9.10
2023-05-05T21:21:24.055Z,7.80
2023-05-05T21:24:14.002Z,10.52
2023-05-05T21:27:03.659Z,11.20
2023-05-05T21:29:51.196Z,10.10
2023-05-05T21:32:44.290Z,10.15
2023-05-05T21:35:31.880Z,8.50
2023-05-05T21:38:19.611Z,8.90
2023-05-05T21:41:10.342Z,9.13
2023-05-05T21:43:59.588Z,9.07
2023-05-05T21:46:50.290Z,8.52
2023-05-05T21:49:38.618Z,8.35
2023-05-05T21:52:26.247Z,8.60
2023-05-05T21:55:13.867Z,9.15
2023-05-05T21:58:01.623Z,9.25
2023-05-05T22:00:51.894Z,8.38
2023-05-05T22:03:39.355Z,8.35
2023-05-05T22:06:28.207Z,9.00
2023-05-05T22:09:17.712Z,8.38
2023-05-05T22:12:05.901Z,8.45
2023-05-05T22:14:53.619Z,8.55
2023-05-05T22:17:46.590Z,9.48
2023-05-05T22:20:35.865Z,8.75
2023-05-05T22:23:23.975Z,9.45
2023-05-05T22:26:12.414Z,8.65
2023-05-05T22:29:00.462Z,9.73
2023-05-05T22:31:51.825Z,11.40
2023-05-05T22:34:44.481Z,10.20
2023-05-05T22:37:34.937Z,9.23
2023-05-05T22:40:22.503Z,10.35
2023-05-05T22:43:09.838Z,10.48
2023-05-05T22:45:57.565Z,10.20
2023-05-05T22:48:44.868Z,10.95
2023-05-05T22:51:34.336Z,11.38
2023-05-05T22:54:21.851Z,10.60
2023-05-05T22:57:09.655Z,10.40
2023-05-05T23:00:00.735Z,10.80
2023-05-05T23:02:49.127Z,10.48
2023-05-05T23:05:38.876Z,10.75
2023-05-05T23:08:27.841Z,10.48
2023-05-05T23:11:15.420Z,9.57
2023-05-05T23:14:03.116Z,10.00
2023-05-05T23:16:50.647Z,10.60
2023-05-05T23:19:43.707Z,10.95
2023-05-05T23:22:34.673Z,10.25
2023-05-05T23:25:23.598Z,10.38
2023-05-05T23:28:11.407Z,11.32
2023-05-05T23:31:03.250Z,10.93
2023-05-05T23:33:50.720Z,10.57
2023-05-05T23:36:43.166Z,11.57
2023-05-05T23:39:36.953Z,11.57
2023-05-05T23:42:25.892Z,10.93
2023-05-05T23:45:13.900Z,10.77
2023-05-05T23:48:04.584Z,10.43
2023-05-05T23:50:53.091Z,11.13
2023-05-05T23:53:40.430Z,11.75
2023-05-05T23:56:28.877Z,12.85
2023-05-05T23:59:17.992Z,12.32
